Time;durP1;ratioP1;P1;durP2;ratioP2;P2;SDS_P1;SDS_P2;PMS_P1;PMS_P2;Temp;Humidity;BMP_temperature;BMP_pressure;BME280_temperature;BME280_humidity;BME280_pressure;Samples;Min_cycle;Max_cycle;Signal;HPM_P1;HPM_P2
2023/01/27 00:02:00;;;;;;;4.25;1.52;;;5.80;90.00;;;;;;5017068;28;20475;-66
2023/01/27 00:04:26;;;;;;;1.40;1.25;;;5.80;90.00;;;;;;5023490;28;20120;-66
2023/01/27 00:06:51;;;;;;;1.30;0.90;;;5.80;90.00;;;;;;5018654;28;20112;-66
2023/01/27 00:09:17;;;;;;;1.98;1.48;;;5.80;90.00;;;;;;5023769;28;20448;-67
2023/01/27 00:14:27;;;;;;;1.98;1.00;;;5.80;89.80;;;;;;5022573;28;20043;-68
2023/01/27 00:16:53;;;;;;;1.65;1.20;;;5.80;89.90;;;;;;5020601;28;20396;-67
2023/01/27 00:19:18;;;;;;;2.30;1.40;;;5.80;89.90;;;;;;5024561;28;20033;-68
2023/01/27 00:24:35;;;;;;;1.13;0.80;;;5.70;89.90;;;;;;5029687;28;20090;-66
2023/01/27 00:27:07;;;;;;;2.97;1.25;;;5.80;90.00;;;;;;5031646;28;20025;-66
2023/01/27 00:29:37;;;;;;;1.05;0.90;;;5.80;89.90;;;;;;5031162;28;20040;-68
2023/01/27 00:34:47;;;;;;;1.23;1.00;;;5.80;89.70;;;;;;5032158;28;20044;-67
2023/01/27 00:37:14;;;;;;;3.63;1.52;;;5.80;89.80;;;;;;5044580;28;20029;-67
2023/01/27 00:39:40;;;;;;;1.75;1.20;;;5.80;89.80;;;;;;5039325;28;20056;-67
2023/01/27 00:42:05;;;;;;;2.85;1.33;;;5.80;89.80;;;;;;5044728;28;20118;-68
2023/01/27 00:44:31;;;;;;;2.45;1.27;;;5.70;89.90;;;;;;5029857;28;20689;-67
2023/01/27 00:46:56;;;;;;;2.58;1.48;;;5.70;90.00;;;;;;5039318;28;20029;-67
2023/01/27 00:49:22;;;;;;;1.60;0.98;;;5.70;90.00;;;;;;5038820;28;20476;-66
2023/01/27 00:51:47;;;;;;;1.88;1.10;;;5.70;90.00;;;;;;5045191;28;20496;-67
2023/01/27 00:54:13;;;;;;;2.67;1.00;;;5.70;90.00;;;;;;5031169;28;20079;-67
2023/01/27 00:56:39;;;;;;;2.28;1.33;;;5.70;90.00;;;;;;5027352;28;20591;-68
2023/01/27 00:59:05;;;;;;;1.48;0.95;;;5.70;90.00;;;;;;5029942;28;20484;-68
2023/01/27 01:01:32;;;;;;;3.63;1.30;;;5.70;89.80;;;;;;5031041;28;20050;-67
2023/01/27 01:03:58;;;;;;;3.63;1.08;;;5.70;89.80;;;;;;5030524;28;20105;-67
2023/01/27 01:06:24;;;;;;;3.45;1.30;;;5.70;89.90;;;;;;5030979;28;20022;-68
2023/01/27 01:08:53;;;;;;;3.00;1.30;;;5.60;89.70;;;;;;5030720;28;20029;-67
2023/01/27 01:11:20;;;;;;;2.10;1.20;;;5.60;89.70;;;;;;5030543;28;20037;-67
2023/01/27 01:13:46;;;;;;;2.15;1.67;;;5.70;89.90;;;;;;5030546;28;20025;-68
2023/01/27 01:16:18;;;;;;;2.08;1.45;;;5.70;89.80;;;;;;5030922;28;20104;-68
2023/01/27 01:18:43;;;;;;;2.30;1.48;;;5.60;89.70;;;;;;5030144;28;20842;-68
2023/01/27 01:21:10;;;;;;;2.75;1.42;;;5.60;90.00;;;;;;5030407;28;20112;-68
2023/01/27 01:23:43;;;;;;;3.50;1.48;;;5.50;89.50;;;;;;5029379;28;20463;-66
2023/01/27 01:26:10;;;;;;;2.22;1.30;;;5.50;89.70;;;;;;5029312;28;20118;-66
2023/01/27 01:28:36;;;;;;;1.90;1.27;;;5.50;89.70;;;;;;5030890;28;20032;-67
2023/01/27 01:31:07;;;;;;;3.58;1.30;;;5.50;89.70;;;;;;5030441;28;20037;-66
2023/01/27 01:33:33;;;;;;;7.18;2.15;;;5.60;89.80;;;;;;5030834;28;20032;-66
2023/01/27 01:36:04;;;;;;;2.65;1.70;;;5.50;89.60;;;;;;5030833;28;20029;-66
2023/01/27 01:38:29;;;;;;;3.03;1.67;;;5.50;89.60;;;;;;5030816;28;20538;-64
2023/01/27 01:40:55;;;;;;;3.53;1.52;;;5.50;89.60;;;;;;5030342;28;20065;-66
2023/01/27 01:43:21;;;;;;;4.35;1.50;;;5.50;89.60;;;;;;5030970;28;20056;-66
2023/01/27 01:45:55;;;;;;;2.10;1.13;;;5.50;89.60;;;;;;5029446;28;20033;-66
2023/01/27 01:48:36;;;;;;;2.17;1.35;;;5.50;89.60;;;;;;5029867;28;20372;-67
2023/01/27 01:51:16;;;;;;;3.85;1.38;;;5.50;89.60;;;;;;5029244;28;20180;-65
2023/01/27 01:53:54;;;;;;;1.58;1.10;;;5.50;89.60;;;;;;5029462;28;20540;-67
2023/01/27 01:56:29;;;;;;;1.85;1.20;;;5.50;89.60;;;;;;5028431;28;20029;-66
2023/01/27 01:58:59;;;;;;;2.55;1.17;;;5.50;89.60;;;;;;5029374;28;20115;-67
2023/01/27 02:01:25;;;;;;;2.63;1.88;;;5.50;89.60;;;;;;5027875;28;20052;-66
2023/01/27 02:03:56;;;;;;;3.42;1.50;;;5.50;89.60;;;;;;5029622;28;20472;-66
2023/01/27 02:06:21;;;;;;;2.75;1.42;;;5.50;89.70;;;;;;5028897;28;20079;-66
2023/01/27 02:08:49;;;;;;;3.17;1.38;;;5.60;89.70;;;;;;5026482;28;20432;-67
2023/01/27 02:11:15;;;;;;;3.30;1.55;;;5.60;89.70;;;;;;5027166;28;20470;-66
2023/01/27 02:13:42;;;;;;;1.60;1.20;;;5.60;89.50;;;;;;5029612;28;20128;-66
2023/01/27 02:16:10;;;;;;;1.77;1.15;;;5.70;89.50;;;;;;5026008;28;20108;-66
2023/01/27 02:18:38;;;;;;;1.95;1.30;;;5.60;89.40;;;;;;5028969;28;20044;-66
2023/01/27 02:21:04;;;;;;;1.88;1.33;;;5.60;89.40;;;;;;5023952;28;20044;-67
2023/01/27 02:23:29;;;;;;;2.45;1.33;;;5.60;89.50;;;;;;5030068;28;20810;-66
2023/01/27 02:26:14;;;;;;;5.05;1.75;;;5.70;89.50;;;;;;5030252;28;20052;-67
2023/01/27 02:28:40;;;;;;;3.00;1.83;;;5.60;89.50;;;;;;5029155;28;20029;-65
2023/01/27 02:31:06;;;;;;;3.10;1.50;;;5.50;89.60;;;;;;5029253;28;20030;-67
2023/01/27 02:33:31;;;;;;;3.78;2.00;;;5.60;89.80;;;;;;5028912;28;20547;-66
2023/01/27 02:36:06;;;;;;;4.32;2.17;;;5.50;89.70;;;;;;5027618;28;20025;-67
2023/01/27 02:38:36;;;;;;;3.95;2.40;;;5.50;89.90;;;;;;5029587;28;20029;-66
2023/01/27 02:41:25;;;;;;;5.05;2.00;;;5.50;90.00;;;;;;5022707;28;20069;-65
2023/01/27 02:43:52;;;;;;;4.25;2.28;;;5.50;89.90;;;;;;5029741;28;20092;-66
2023/01/27 02:46:18;;;;;;;4.13;2.10;;;5.50;90.00;;;;;;5028570;28;20030;-66
2023/01/27 02:48:43;;;;;;;3.25;1.80;;;5.50;90.00;;;;;;5028638;28;20021;-64
2023/01/27 02:51:10;;;;;;;5.90;2.30;;;5.50;90.00;;;;;;5028934;28;20112;-66
2023/01/27 02:53:35;;;;;;;3.15;1.58;;;5.50;90.00;;;;;;5029483;28;20033;-67
2023/01/27 02:56:01;;;;;;;6.82;1.80;;;5.50;90.00;;;;;;5029366;28;20638;-66
2023/01/27 02:58:27;;;;;;;2.70;1.52;;;5.50;90.00;;;;;;5029905;28;20033;-67
2023/01/27 03:00:52;;;;;;;3.05;1.90;;;5.50;90.00;;;;;;5028581;28;20845;-66
2023/01/27 03:03:18;;;;;;;5.75;2.20;;;5.50;90.00;;;;;;5028550;28;20025;-66
2023/01/27 03:05:45;;;;;;;5.10;2.25;;;5.50;90.00;;;;;;5028213;28;20033;-65
2023/01/27 03:08:10;;;;;;;5.10;2.13;;;5.50;90.10;;;;;;5027525;28;20053;-66
2023/01/27 03:10:36;;;;;;;5.38;2.20;;;5.50;90.10;;;;;;5013903;28;20451;-67
2023/01/27 03:13:02;;;;;;;7.22;2.22;;;5.40;90.00;;;;;;5030031;28;20049;-66
2023/01/27 03:18:12;;;;;;;5.25;2.53;;;5.40;90.10;;;;;;5009633;28;20048;-66
2023/01/27 03:20:39;;;;;;;5.72;2.53;;;5.40;90.10;;;;;;5028112;28;20029;-67
2023/01/27 03:23:05;;;;;;;5.15;2.55;;;5.40;90.20;;;;;;5029013;28;20388;-65
2023/01/27 03:25:31;;;;;;;6.00;2.85;;;5.30;90.10;;;;;;5028232;28;20056;-66
2023/01/27 03:27:57;;;;;;;4.95;2.70;;;5.30;90.10;;;;;;5027886;28;20424;-64
2023/01/27 03:30:22;;;;;;;8.35;2.58;;;5.30;90.10;;;;;;5028008;28;20029;-66
2023/01/27 03:32:48;;;;;;;4.30;2.10;;;5.30;90.10;;;;;;5028246;28;20096;-66
2023/01/27 03:35:14;;;;;;;5.47;2.67;;;5.30;90.10;;;;;;5027483;28;20124;-67
2023/01/27 03:48:38;;;;;;;5.03;2.40;;;5.40;90.10;;;;;;5032649;28;20064;-67
2023/01/27 03:51:06;;;;;;;3.28;1.88;;;5.40;90.00;;;;;;5033074;28;20026;-67
2023/01/27 03:53:33;;;;;;;3.97;2.67;;;5.40;90.10;;;;;;5026910;28;20104;-66
2023/01/27 03:55:58;;;;;;;3.15;1.88;;;5.40;90.00;;;;;;5032251;28;20032;-66
2023/01/27 03:58:27;;;;;;;3.92;2.45;;;5.50;90.10;;;;;;5027022;28;20029;-66
2023/01/27 04:00:57;;;;;;;2.75;1.70;;;5.50;90.00;;;;;;5030320;28;20104;-67
2023/01/27 04:08:58;;;;;;;2.47;1.50;;;5.50;89.70;;;;;;5030748;28;20487;-65
2023/01/27 04:14:09;;;;;;;6.90;2.50;;;5.50;89.60;;;;;;5030958;28;20091;-65
2023/01/27 04:16:38;;;;;;;4.15;1.95;;;5.40;88.90;;;;;;5031490;28;20027;-65
2023/01/27 04:19:06;;;;;;;3.38;1.73;;;5.40;90.00;;;;;;5030574;28;20033;-66
2023/01/27 04:21:32;;;;;;;4.65;2.22;;;5.40;89.50;;;;;;5031019;28;20033;-66
2023/01/27 04:23:59;;;;;;;4.68;2.65;;;5.50;89.60;;;;;;5032403;28;20017;-67
2023/01/27 04:26:25;;;;;;;4.22;2.30;;;5.50;89.40;;;;;;5031656;28;20029;-66
2023/01/27 04:28:50;;;;;;;3.53;1.88;;;5.40;88.60;;;;;;5031344;28;20088;-65
2023/01/27 04:31:16;;;;;;;2.80;1.88;;;5.40;89.20;;;;;;5031818;28;20025;-66
2023/01/27 04:33:43;;;;;;;4.93;2.33;;;5.50;89.30;;;;;;5030787;28;20129;-66
2023/01/27 04:36:10;;;;;;;5.53;2.35;;;5.40;88.80;;;;;;5031868;28;20022;-66
2023/01/27 04:38:36;;;;;;;4.70;2.30;;;5.40;89.10;;;;;;5031003;28;20067;-66
2023/01/27 04:41:01;;;;;;;3.55;2.10;;;5.40;88.90;;;;;;5032711;28;20446;-66
2023/01/27 04:43:27;;;;;;;3.92;2.13;;;5.40;89.10;;;;;;5031732;28;20022;-66
2023/01/27 04:45:53;;;;;;;3.97;1.80;;;5.40;89.00;;;;;;5031862;28;20029;-65
2023/01/27 04:48:18;;;;;;;2.72;1.55;;;5.50;89.10;;;;;;5031960;28;20034;-65
2023/01/27 04:50:44;;;;;;;2.90;1.60;;;5.50;89.20;;;;;;5032037;28;20060;-65
2023/01/27 04:53:09;;;;;;;3.03;1.80;;;5.60;89.20;;;;;;5031646;28;20061;-64
2023/01/27 04:55:35;;;;;;;2.03;1.38;;;5.60;88.90;;;;;;5031654;28;20080;-66
2023/01/27 04:58:01;;;;;;;4.88;2.08;;;5.50;88.90;;;;;;5029197;28;20045;-65
2023/01/27 05:00:26;;;;;;;4.53;2.33;;;5.50;88.70;;;;;;5029410;28;20025;-67
2023/01/27 05:02:52;;;;;;;5.43;1.80;;;5.50;88.70;;;;;;5030242;28;20029;-66
2023/01/27 05:05:17;;;;;;;3.20;1.92;;;5.50;88.90;;;;;;5030607;28;20045;-65
2023/01/27 05:07:43;;;;;;;2.25;1.63;;;5.50;89.00;;;;;;5030815;28;20100;-66
2023/01/27 05:10:09;;;;;;;3.72;2.00;;;5.60;89.10;;;;;;5025003;28;20060;-67
2023/01/27 05:12:35;;;;;;;2.75;1.48;;;5.60;88.90;;;;;;5031067;28;20037;-65
2023/01/27 05:15:00;;;;;;;2.10;1.20;;;5.60;88.40;;;;;;5029906;28;20067;-65
2023/01/27 05:17:30;;;;;;;2.22;1.30;;;5.60;88.70;;;;;;5030257;28;20071;-66
2023/01/27 05:19:55;;;;;;;2.40;1.33;;;5.70;88.80;;;;;;5030277;28;20025;-66
2023/01/27 05:22:21;;;;;;;2.03;1.10;;;5.70;88.70;;;;;;5030428;28;20025;-66
2023/01/27 05:24:47;;;;;;;2.50;1.45;;;5.70;88.60;;;;;;5030761;28;20075;-66
2023/01/27 05:27:12;;;;;;;2.50;1.55;;;5.70;88.50;;;;;;5031483;28;20021;-65
2023/01/27 05:29:38;;;;;;;2.33;1.40;;;5.70;88.20;;;;;;5029238;28;20585;-66
2023/01/27 05:32:03;;;;;;;2.40;1.48;;;5.70;88.50;;;;;;5031390;28;20025;-67
2023/01/27 05:34:29;;;;;;;1.77;1.10;;;5.70;88.50;;;;;;5030477;28;20511;-65
2023/01/27 05:36:54;;;;;;;2.35;1.20;;;5.80;88.50;;;;;;5031557;28;20388;-66
2023/01/27 05:39:20;;;;;;;2.22;1.40;;;5.80;88.40;;;;;;5025123;28;20662;-67
2023/01/27 05:41:45;;;;;;;2.15;1.40;;;5.80;88.40;;;;;;5021694;28;20018;-67
2023/01/27 05:44:11;;;;;;;2.10;1.20;;;5.80;88.20;;;;;;5023905;28;20380;-64
2023/01/27 05:46:39;;;;;;;3.90;1.70;;;5.70;88.20;;;;;;5027970;28;20133;-65
2023/01/27 05:49:05;;;;;;;2.45;1.40;;;5.80;88.30;;;;;;5030751;28;20028;-67
2023/01/27 05:51:34;;;;;;;2.15;1.40;;;5.80;88.30;;;;;;5028373;28;20120;-65
2023/01/27 05:54:00;;;;;;;2.55;1.40;;;5.80;88.30;;;;;;5029554;28;20108;-66
2023/01/27 05:56:25;;;;;;;1.00;0.90;;;5.90;88.20;;;;;;5029353;28;20116;-65
2023/01/27 05:58:55;;;;;;;2.55;1.70;;;5.90;88.10;;;;;;5026969;28;20033;-67
2023/01/27 06:01:23;;;;;;;1.15;1.08;;;5.90;88.10;;;;;;5026730;28;20034;-67
2023/01/27 06:03:49;;;;;;;2.20;1.15;;;5.90;88.00;;;;;;5030088;28;20022;-67
2023/01/27 06:06:18;;;;;;;2.30;1.23;;;5.80;88.10;;;;;;5027425;28;20407;-67
2023/01/27 06:08:44;;;;;;;1.30;1.20;;;5.80;88.10;;;;;;5030442;28;20025;-66
2023/01/27 06:11:10;;;;;;;2.72;1.35;;;5.80;88.10;;;;;;5027975;28;21106;-67
2023/01/27 06:13:37;;;;;;;1.67;1.10;;;5.80;88.10;;;;;;5030174;28;20061;-66
2023/01/27 06:16:04;;;;;;;1.10;0.90;;;5.90;88.20;;;;;;5031047;28;20029;-67
2023/01/27 06:18:30;;;;;;;1.73;1.17;;;5.90;88.10;;;;;;5029386;28;20037;-67
2023/01/27 06:20:58;;;;;;;1.33;1.15;;;5.90;88.10;;;;;;5029270;28;20104;-67
2023/01/27 06:23:24;;;;;;;2.10;1.30;;;5.90;88.10;;;;;;5029553;28;20029;-67
2023/01/27 06:25:50;;;;;;;2.15;1.30;;;5.80;88.00;;;;;;5028844;28;20048;-67
2023/01/27 06:28:16;;;;;;;2.05;1.20;;;5.80;88.10;;;;;;5028188;28;20440;-67
2023/01/27 06:30:43;;;;;;;1.92;1.20;;;5.90;88.10;;;;;;5027961;28;20033;-68
2023/01/27 06:33:08;;;;;;;3.75;2.00;;;5.90;88.10;;;;;;5030079;28;20037;-66
2023/01/27 06:35:35;;;;;;;1.35;0.93;;;5.90;88.10;;;;;;5023343;28;20029;-67
2023/01/27 06:38:02;;;;;;;1.88;1.17;;;5.80;88.10;;;;;;5030599;28;20032;-66
2023/01/27 06:40:30;;;;;;;1.27;0.95;;;5.80;88.10;;;;;;5029134;28;20025;-66
2023/01/27 06:42:55;;;;;;;1.38;1.10;;;5.80;88.20;;;;;;5028823;28;20028;-67
2023/01/27 06:45:21;;;;;;;1.10;1.00;;;5.80;88.10;;;;;;5025616;28;20022;-67
2023/01/27 06:47:54;;;;;;;1.00;0.90;;;5.80;88.10;;;;;;5029609;28;20031;-66
2023/01/27 06:50:20;;;;;;;1.10;1.00;;;5.80;88.10;;;;;;5028814;28;20025;-65
2023/01/27 06:52:46;;;;;;;1.77;1.20;;;5.90;88.10;;;;;;5025045;28;20036;-67
2023/01/27 06:55:11;;;;;;;1.00;0.90;;;5.80;88.10;;;;;;5027500;28;20025;-66
2023/01/27 06:57:37;;;;;;;0.77;0.70;;;5.80;88.20;;;;;;5029990;28;20036;-66
2023/01/27 07:00:03;;;;;;;1.77;1.30;;;5.80;88.10;;;;;;5029534;28;20104;-65
2023/01/27 07:02:29;;;;;;;1.20;1.10;;;5.80;88.10;;;;;;5029685;28;20422;-66
2023/01/27 07:04:55;;;;;;;1.63;1.02;;;5.80;88.20;;;;;;5029555;28;20093;-66
2023/01/27 07:07:20;;;;;;;1.75;1.35;;;5.70;88.20;;;;;;5029828;28;20057;-68
2023/01/27 07:09:46;;;;;;;1.55;1.38;;;5.60;88.20;;;;;;5028783;28;20099;-68
2023/01/27 07:12:11;;;;;;;2.08;1.42;;;5.60;88.40;;;;;;5026192;28;20030;-67
2023/01/27 07:14:37;;;;;;;1.52;1.30;;;5.50;88.30;;;;;;5028476;28;20797;-68
2023/01/27 07:17:02;;;;;;;1.65;1.30;;;5.50;88.50;;;;;;5023538;28;20033;-66
2023/01/27 07:19:28;;;;;;;2.85;1.30;;;5.40;88.50;;;;;;5022431;28;20087;-67
2023/01/27 07:21:53;;;;;;;1.17;1.08;;;5.40;88.70;;;;;;5027310;28;20021;-66
2023/01/27 07:24:19;;;;;;;1.20;1.10;;;5.40;88.90;;;;;;5022759;28;20025;-68
2023/01/27 07:26:46;;;;;;;1.88;1.17;;;5.30;88.70;;;;;;5026444;28;20024;-68
2023/01/27 07:29:12;;;;;;;1.73;1.20;;;5.20;88.80;;;;;;5027210;28;20124;-68
2023/01/27 07:31:38;;;;;;;1.70;1.30;;;5.20;88.90;;;;;;5027172;28;20025;-66
2023/01/27 07:34:03;;;;;;;1.02;0.93;;;5.10;88.80;;;;;;5024922;28;20616;-68
2023/01/27 07:36:29;;;;;;;1.25;1.10;;;5.10;88.90;;;;;;5025458;28;20104;-68
2023/01/27 07:38:54;;;;;;;1.30;1.13;;;5.20;89.00;;;;;;5027397;28;20021;-68
2023/01/27 07:41:21;;;;;;;1.27;0.88;;;5.20;89.00;;;;;;5028337;28;20041;-68
2023/01/27 07:43:47;;;;;;;0.93;0.88;;;5.20;89.00;;;;;;5028916;28;20095;-68
2023/01/27 07:46:13;;;;;;;1.20;1.10;;;5.20;88.90;;;;;;5028176;28;20057;-68
2023/01/27 07:48:39;;;;;;;1.20;1.10;;;5.20;88.70;;;;;;5030602;28;20022;-66
2023/01/27 07:51:04;;;;;;;1.20;0.93;;;5.20;88.70;;;;;;5029812;28;20048;-68
2023/01/27 07:53:30;;;;;;;0.88;0.85;;;5.20;88.60;;;;;;5026835;28;20039;-67
2023/01/27 07:55:58;;;;;;;1.02;0.98;;;5.20;88.60;;;;;;5021436;28;20029;-67
2023/01/27 07:58:24;;;;;;;1.05;0.90;;;5.30;88.50;;;;;;5025682;28;20052;-67
2023/01/27 08:00:49;;;;;;;1.00;0.90;;;5.30;88.40;;;;;;5025012;28;20117;-67
2023/01/27 08:03:24;;;;;;;1.17;1.08;;;5.30;88.30;;;;;;5029497;28;20403;-68
2023/01/27 08:05:50;;;;;;;1.30;1.10;;;5.30;88.30;;;;;;5028472;28;20041;-66
2023/01/27 08:08:16;;;;;;;2.00;0.88;;;5.30;88.90;;;;;;5022828;28;20037;-66
2023/01/27 08:10:45;;;;;;;0.88;0.75;;;5.40;88.30;;;;;;5028898;28;20033;-70
2023/01/27 08:13:12;;;;;;;1.00;0.90;;;5.30;88.20;;;;;;5025024;28;20435;-67
2023/01/27 08:15:37;;;;;;;0.93;0.90;;;5.40;88.20;;;;;;5027144;28;20381;-67
2023/01/27 08:18:03;;;;;;;1.08;0.95;;;5.40;87.90;;;;;;5020586;28;20034;-67
2023/01/27 08:20:29;;;;;;;1.45;1.02;;;5.40;88.10;;;;;;5023861;28;20025;-67
2023/01/27 08:22:55;;;;;;;1.00;0.90;;;5.40;88.00;;;;;;5025936;28;20052;-68
2023/01/27 08:25:21;;;;;;;0.80;0.80;;;5.40;87.90;;;;;;5028364;28;20026;-67
2023/01/27 08:27:51;;;;;;;1.65;1.00;;;5.40;87.90;;;;;;5023139;28;20025;-67
2023/01/27 08:30:17;;;;;;;0.90;0.90;;;5.40;87.90;;;;;;5029610;28;20120;-67
2023/01/27 08:32:43;;;;;;;0.88;0.88;;;5.50;87.90;;;;;;5025896;28;20414;-66
2023/01/27 08:35:08;;;;;;;1.05;1.00;;;5.50;87.80;;;;;;5026715;28;20047;-66
2023/01/27 08:37:34;;;;;;;1.02;0.90;;;5.50;87.80;;;;;;5028228;28;20496;-66
2023/01/27 08:39:59;;;;;;;2.05;1.40;;;5.50;87.70;;;;;;5031502;28;20038;-66
2023/01/27 08:42:25;;;;;;;1.90;1.33;;;5.50;87.60;;;;;;5030844;28;20026;-67
2023/01/27 08:44:50;;;;;;;1.50;1.10;;;5.50;87.50;;;;;;5030566;28;20033;-66
2023/01/27 08:47:16;;;;;;;1.25;0.90;;;5.40;87.40;;;;;;5026813;28;20460;-67
2023/01/27 08:49:41;;;;;;;1.20;1.10;;;5.40;87.40;;;;;;5029838;28;20033;-66
2023/01/27 08:52:07;;;;;;;1.95;1.38;;;5.40;87.50;;;;;;5027262;28;20053;-67
2023/01/27 08:54:32;;;;;;;1.58;1.20;;;5.40;87.40;;;;;;5025523;28;20026;-67
2023/01/27 08:56:58;;;;;;;1.40;1.30;;;5.40;87.40;;;;;;5026226;28;20032;-67
2023/01/27 08:59:24;;;;;;;1.38;1.13;;;5.30;87.20;;;;;;5023629;28;20060;-68
2023/01/27 09:01:49;;;;;;;1.83;1.45;;;5.30;87.40;;;;;;5025416;28;20025;-67
2023/01/27 09:04:15;;;;;;;1.80;1.30;;;5.30;87.40;;;;;;5026366;28;20053;-67
2023/01/27 09:06:40;;;;;;;2.30;1.23;;;5.30;87.10;;;;;;5023255;28;20113;-68
2023/01/27 09:09:09;;;;;;;1.75;0.93;;;5.30;87.30;;;;;;5023028;28;20018;-67
2023/01/27 09:11:36;;;;;;;2.33;1.50;;;5.30;87.40;;;;;;5023550;28;20033;-67
2023/01/27 09:14:02;;;;;;;2.25;1.50;;;5.30;86.80;;;;;;5028046;28;20144;-67
2023/01/27 09:16:28;;;;;;;4.20;1.45;;;5.20;87.10;;;;;;5023986;28;20104;-67
2023/01/27 09:18:54;;;;;;;1.40;1.30;;;5.20;86.90;;;;;;5024821;28;20033;-65
2023/01/27 09:21:19;;;;;;;2.13;1.20;;;5.20;88.10;;;;;;5021672;28;20366;-67
2023/01/27 09:23:48;;;;;;;1.30;1.20;;;5.20;87.60;;;;;;5021831;28;20028;-67
2023/01/27 09:26:13;;;;;;;1.98;1.33;;;5.20;87.50;;;;;;5021558;28;20033;-66
2023/01/27 09:28:39;;;;;;;2.47;1.50;;;5.20;87.40;;;;;;5024021;28;20025;-68
2023/01/27 09:31:05;;;;;;;2.35;1.20;;;5.10;87.00;;;;;;5024653;28;20034;-68
2023/01/27 09:33:30;;;;;;;1.58;1.20;;;5.10;87.40;;;;;;5023728;28;20059;-68
2023/01/27 09:36:09;;;;;;;1.88;1.50;;;5.10;87.70;;;;;;5024819;28;20033;-67
2023/01/27 09:38:40;;;;;;;1.85;1.50;;;5.10;87.70;;;;;;5028061;28;20116;-68
2023/01/27 09:41:21;;;;;;;2.22;1.30;;;5.20;87.70;;;;;;5024366;28;20040;-66
2023/01/27 09:44:05;;;;;;;1.73;1.45;;;5.20;87.70;;;;;;5029259;28;20471;-67
2023/01/27 09:47:01;;;;;;;1.30;1.00;;;5.20;87.70;;;;;;5028134;28;20052;-67
2023/01/27 09:49:45;;;;;;;1.52;1.20;;;5.30;87.70;;;;;;5027374;28;20052;-67
2023/01/27 09:52:26;;;;;;;3.30;1.27;;;5.30;87.40;;;;;;5021531;28;20037;-68
2023/01/27 09:54:54;;;;;;;1.27;1.17;;;5.30;87.50;;;;;;5024863;28;20026;-68
2023/01/27 09:57:35;;;;;;;1.40;1.10;;;5.40;87.40;;;;;;5025360;28;20057;-68
2023/01/27 10:00:11;;;;;;;1.83;1.25;;;5.40;87.10;;;;;;5027829;28;20492;-67
2023/01/27 10:03:01;;;;;;;2.13;1.30;;;5.30;87.10;;;;;;5028999;28;20049;-69
2023/01/27 10:05:46;;;;;;;1.15;0.90;;;5.30;87.50;;;;;;5023362;28;20025;-67
2023/01/27 10:08:39;;;;;;;2.88;1.60;;;5.40;87.50;;;;;;5026930;28;20030;-66
2023/01/27 10:11:08;;;;;;;1.00;0.80;;;5.40;87.50;;;;;;5029255;28;20037;-66
2023/01/27 10:13:48;;;;;;;1.77;1.15;;;5.50;87.40;;;;;;5025033;28;20063;-65
2023/01/27 10:16:26;;;;;;;1.92;1.15;;;5.60;87.40;;;;;;5031605;28;20039;-67
2023/01/27 10:19:05;;;;;;;2.72;1.10;;;5.60;87.20;;;;;;5031728;28;20099;-66
2023/01/27 10:21:56;;;;;;;1.75;1.30;;;5.60;87.10;;;;;;5028702;28;20037;-65
2023/01/27 10:24:38;;;;;;;2.63;1.35;;;5.60;87.10;;;;;;5029025;28;20026;-65
2023/01/27 10:27:04;;;;;;;;;;;5.70;87.20;;;;;;5028299;28;20026;-65
2023/01/27 10:29:40;;;;;;;1.60;1.20;;;5.70;87.10;;;;;;5029477;28;20442;-67
2023/01/27 10:32:23;;;;;;;1.40;1.00;;;5.70;87.10;;;;;;5029901;28;20032;-67
2023/01/27 10:34:48;;;;;;;;;;;5.70;86.80;;;;;;5029669;28;20021;-66
2023/01/27 10:37:46;;;;;;;2.05;1.33;;;5.60;86.70;;;;;;5029972;28;20347;-66
2023/01/27 10:40:14;;;;;;;1.98;1.20;;;5.60;86.90;;;;;;5024957;28;20051;-66
2023/01/27 10:42:51;;;;;;;2.67;1.42;;;5.50;86.90;;;;;;5026955;28;20046;-67
2023/01/27 10:45:20;;;;;;;1.98;1.52;;;5.60;87.10;;;;;;5027784;28;20021;-65
2023/01/27 10:48:05;;;;;;;1.73;1.27;;;5.70;87.00;;;;;;5027241;28;20088;-67
2023/01/27 10:50:49;;;;;;;2.00;1.27;;;5.60;86.80;;;;;;5015203;28;20040;-66
2023/01/27 10:53:56;;;;;;;3.13;1.30;;;5.70;86.80;;;;;;5026842;28;20033;-65
2023/01/27 10:56:43;;;;;;;2.72;1.48;;;5.70;86.90;;;;;;5022521;28;20096;-66
2023/01/27 10:59:24;;;;;;;1.48;1.02;;;5.70;86.90;;;;;;5022896;28;20033;-67
2023/01/27 11:02:02;;;;;;;1.35;1.00;;;5.70;86.80;;;;;;5029396;28;20523;-66
2023/01/27 11:04:34;;;;;;;3.55;1.38;;;5.80;86.80;;;;;;5031793;28;20021;-67
2023/01/27 11:07:02;;;;;;;1.60;1.17;;;5.80;86.00;;;;;;5030971;28;20029;-65
2023/01/27 11:09:32;;;;;;;1.60;1.00;;;5.80;86.40;;;;;;5031669;28;20088;-67
2023/01/27 11:12:11;;;;;;;2.65;1.33;;;5.90;86.50;;;;;;5028263;28;20487;-66
2023/01/27 11:14:45;;;;;;;3.00;1.70;;;6.00;86.40;;;;;;5027661;28;20030;-66
2023/01/27 11:17:33;;;;;;;1.70;1.30;;;6.00;86.20;;;;;;5027232;28;20053;-67
2023/01/27 11:20:26;;;;;;;2.08;1.20;;;6.20;86.10;;;;;;5025586;28;20139;-66
2023/01/27 11:23:03;;;;;;;1.90;1.20;;;6.20;86.00;;;;;;5031920;28;20060;-67
2023/01/27 11:25:33;;;;;;;1.75;1.20;;;6.30;85.80;;;;;;5022021;28;20207;-66
2023/01/27 11:28:07;;;;;;;1.48;1.30;;;6.40;85.60;;;;;;5021433;28;20052;-66
2023/01/27 11:30:41;;;;;;;2.63;1.10;;;6.30;85.40;;;;;;5026895;28;20025;-66
2023/01/27 11:33:12;;;;;;;1.83;1.40;;;6.30;85.40;;;;;;5027448;28;20030;-67
2023/01/27 11:35:38;;;;;;;1.70;1.60;;;6.30;85.40;;;;;;5027513;28;20388;-67
2023/01/27 11:38:19;;;;;;;1.75;1.35;;;6.30;85.50;;;;;;5026522;28;20034;-65
2023/01/27 11:40:46;;;;;;;1.67;1.50;;;6.30;85.40;;;;;;5022770;28;20511;-67
2023/01/27 11:43:18;;;;;;;1.25;1.15;;;6.30;85.30;;;;;;5026078;28;20021;-66
2023/01/27 11:45:45;;;;;;;2.17;1.38;;;6.30;85.50;;;;;;5022828;28;20691;-66
2023/01/27 11:48:14;;;;;;;3.15;1.80;;;6.30;85.10;;;;;;5019850;28;21059;-67
2023/01/27 11:50:41;;;;;;;1.38;1.05;;;6.30;85.10;;;;;;5023334;28;20025;-67
2023/01/27 11:53:17;;;;;;;1.42;1.17;;;6.30;85.10;;;;;;5028862;28;20116;-66
2023/01/27 11:55:54;;;;;;;1.98;1.10;;;6.30;84.70;;;;;;5028880;28;20037;-65
2023/01/27 11:58:20;;;;;;;2.05;1.20;;;6.40;84.90;;;;;;5028006;28;20040;-67
2023/01/27 12:01:08;;;;;;;2.08;1.30;;;6.40;84.90;;;;;;5029253;28;20021;-67
2023/01/27 12:03:56;;;;;;;1.50;1.10;;;6.40;84.90;;;;;;5027295;28;20065;-67
2023/01/27 12:06:39;;;;;;;1.65;1.20;;;6.50;84.70;;;;;;5045303;28;20033;-67
2023/01/27 12:09:04;;;;;;;1.77;1.50;;;6.30;84.30;;;;;;5032699;28;20080;-67
2023/01/27 12:11:31;;;;;;;3.28;1.40;;;6.30;84.00;;;;;;5040327;28;20484;-67
2023/01/27 12:14:02;;;;;;;1.85;1.10;;;6.40;84.50;;;;;;5029419;28;20033;-65
2023/01/27 12:16:44;;;;;;;1.77;1.40;;;6.40;84.70;;;;;;5031553;28;20061;-66
2023/01/27 12:19:35;;;;;;;1.98;1.40;;;6.40;84.40;;;;;;5034694;28;20484;-68
2023/01/27 12:22:08;;;;;;;3.10;1.60;;;6.50;84.50;;;;;;5032205;28;20029;-67
2023/01/27 12:24:38;;;;;;;1.90;1.38;;;6.50;84.30;;;;;;5032789;28;20033;-66
2023/01/27 12:27:05;;;;;;;2.40;1.73;;;6.60;84.30;;;;;;5036689;28;20476;-66
2023/01/27 12:29:47;;;;;;;2.72;1.80;;;6.70;84.30;;;;;;5030791;28;20029;-67
2023/01/27 12:32:17;;;;;;;0.98;0.85;;;6.70;84.10;;;;;;5031535;28;20025;-68
2023/01/27 12:34:47;;;;;;;1.33;1.20;;;6.70;84.00;;;;;;5034060;28;20391;-67
2023/01/27 12:37:22;;;;;;;1.33;1.13;;;6.70;84.10;;;;;;5030958;28;20043;-67
2023/01/27 12:40:00;;;;;;;3.17;1.50;;;6.70;84.10;;;;;;5030689;28;20377;-67
2023/01/27 12:42:36;;;;;;;2.13;1.52;;;6.80;84.10;;;;;;5033517;28;20021;-68
2023/01/27 12:45:18;;;;;;;2.92;1.70;;;6.70;83.10;;;;;;5026467;28;20504;-66
2023/01/27 12:48:01;;;;;;;;;;;6.50;83.60;;;;;;5026064;28;20044;-66
2023/01/27 12:50:30;;;;;;;2.35;1.80;;;6.50;83.90;;;;;;5027292;28;19968;-67
2023/01/27 12:53:12;;;;;;;2.17;1.38;;;6.60;84.00;;;;;;5029126;28;20052;-67
2023/01/27 12:55:46;;;;;;;2.17;1.35;;;6.60;84.00;;;;;;5027089;28;20064;-67
2023/01/27 12:58:30;;;;;;;1.67;1.15;;;6.60;84.10;;;;;;5026132;28;20021;-67
2023/01/27 13:00:59;;;;;;;1.10;1.00;;;6.60;84.20;;;;;;5027374;28;20116;-67
2023/01/27 13:03:25;;;;;;;1.48;1.33;;;6.60;84.10;;;;;;5025721;28;20105;-67
2023/01/27 13:05:57;;;;;;;3.03;1.73;;;6.60;84.20;;;;;;5039397;28;20040;-68
2023/01/27 13:08:24;;;;;;;1.95;1.27;;;6.60;84.20;;;;;;5026802;28;20612;-68
2023/01/27 13:10:56;;;;;;;1.70;1.27;;;6.60;84.30;;;;;;5026371;28;20117;-68
2023/01/27 13:13:27;;;;;;;1.17;1.00;;;6.60;84.40;;;;;;5036046;28;20068;-68
2023/01/27 13:16:07;;;;;;;3.72;1.15;;;6.60;84.50;;;;;;5041252;28;20128;-67
2023/01/27 13:18:34;;;;;;;1.20;1.10;;;6.60;84.40;;;;;;5036353;28;20041;-67
2023/01/27 13:21:14;;;;;;;1.23;1.13;;;6.60;84.10;;;;;;5047114;28;20047;-67
2023/01/27 13:23:41;;;;;;;1.15;0.93;;;6.60;84.40;;;;;;5039547;28;20021;-68
2023/01/27 13:26:13;;;;;;;1.23;0.95;;;6.60;84.30;;;;;;5042900;28;20660;-68
2023/01/27 13:28:38;;;;;;;;;;;6.60;84.20;;;;;;5036602;28;20404;-67
2023/01/27 13:31:20;;;;;;;0.80;0.80;;;6.60;84.40;;;;;;5031374;28;19917;-67
2023/01/27 13:33:55;;;;;;;1.88;1.30;;;6.60;84.50;;;;;;5036005;28;20102;-68
2023/01/27 13:36:48;;;;;;;2.22;1.48;;;6.50;84.20;;;;;;5040707;28;20028;-65
2023/01/27 13:39:32;;;;;;;1.77;1.27;;;6.40;83.30;;;;;;5027553;28;20040;-67
2023/01/27 13:42:04;;;;;;;1.30;1.20;;;6.40;84.30;;;;;;5035100;28;20021;-67